Time;durP1;ratioP1;P1;durP2;ratioP2;P2;SDS_P1;SDS_P2;PMS_P1;PMS_P2;Temp;Humidity;BMP_temperature;BMP_pressure;BME280_temperature;BME280_humidity;BME280_pressure;Samples;Min_cycle;Max_cycle;Signal;HPM_P1;HPM_P2
2023/05/02 00:00:46;;;;;;;3.67;3.37;;;;;;;20.51;56.74;97474.31;4968568;28;20573;-29
2023/05/02 00:03:12;;;;;;;4.33;3.43;;;;;;;20.50;56.62;97470.03;4937231;29;20620;-29
2023/05/02 00:05:39;;;;;;;3.70;3.20;;;;;;;20.51;56.47;97471.78;4967353;28;20298;-28
2023/05/02 00:08:06;;;;;;;4.00;3.43;;;;;;;20.55;56.58;97481.28;4969301;28;20231;-28
2023/05/02 00:10:33;;;;;;;3.43;3.10;;;;;;;20.50;56.64;97469.16;4958016;28;20207;-30
2023/05/02 00:12:59;;;;;;;3.50;3.20;;;;;;;20.54;56.30;97478.69;4963960;28;20210;-28
2023/05/02 00:15:26;;;;;;;3.47;3.17;;;;;;;20.55;56.66;97486.38;4958164;28;20216;-28
2023/05/02 00:17:53;;;;;;;3.80;3.40;;;;;;;20.54;56.45;97483.78;4962340;28;20291;-30
2023/05/02 00:20:20;;;;;;;3.57;3.27;;;;;;;20.51;56.33;97479.44;4972895;28;20282;-29
2023/05/02 00:22:46;;;;;;;3.60;2.93;;;;;;;20.55;56.45;97486.38;4965843;28;20343;-29
2023/05/02 00:25:15;;;;;;;3.30;3.00;;;;;;;20.49;56.86;97475.94;4969102;28;20668;-29
2023/05/02 00:27:45;;;;;;;3.70;3.00;;;;;;;20.55;56.52;97486.38;4972197;28;20200;-29
2023/05/02 00:30:13;;;;;;;3.43;3.13;;;;;;;20.55;56.67;97480.41;4964962;28;20745;-31
2023/05/02 00:32:39;;;;;;;4.03;3.20;;;;;;;20.50;56.66;97474.28;4963487;28;20650;-28
2023/05/02 00:35:06;;;;;;;3.67;3.23;;;;;;;20.56;56.60;97488.13;4965978;28;20234;-30
2023/05/02 00:37:33;;;;;;;3.77;3.47;;;;;;;20.57;56.52;97494.09;4954800;28;20204;-29
2023/05/02 00:40:00;;;;;;;3.43;3.13;;;;;;;20.57;56.59;97494.09;4971024;28;20594;-29
2023/05/02 00:42:30;;;;;;;3.50;3.20;;;;;;;20.57;56.65;97491.53;4972620;28;20206;-28
2023/05/02 00:44:57;;;;;;;3.93;3.10;;;;;;;20.55;56.45;97491.50;4971414;28;20644;-28
2023/05/02 00:47:23;;;;;;;3.73;3.30;;;;;;;20.43;56.36;97469.78;4972459;28;20219;-29
2023/05/02 00:49:50;;;;;;;3.60;3.30;;;;;;;20.56;56.53;97497.44;4979229;28;21464;-28
2023/05/02 00:52:17;;;;;;;4.00;3.60;;;;;;;20.56;56.41;97495.78;4976563;28;20200;-28
2023/05/02 00:54:44;;;;;;;3.40;3.10;;;;;;;20.48;56.58;97491.22;4976002;28;20317;-28
2023/05/02 00:57:10;;;;;;;3.57;3.27;;;;;;;20.49;56.76;97481.06;4966407;28;20641;-28
2023/05/02 00:59:37;;;;;;;3.20;2.90;;;;;;;20.55;56.44;97496.59;4963106;28;20204;-29
2023/05/02 01:02:18;;;;;;;3.40;3.10;;;;;;;20.56;56.83;97507.66;4968051;28;20200;-30
2023/05/02 01:05:10;;;;;;;3.57;3.27;;;;;;;20.55;56.73;97494.06;4968689;28;20224;-30
2023/05/02 01:07:45;;;;;;;3.40;3.10;;;;;;;20.56;56.59;97505.09;4963209;28;20243;-30
2023/05/02 01:10:35;;;;;;;3.63;3.33;;;;;;;20.43;56.67;97480.84;4963523;28;20270;-28
2023/05/02 01:13:13;;;;;;;3.20;2.90;;;;;;;20.54;56.69;97507.63;4972173;28;20679;-30
2023/05/02 01:15:40;;;;;;;3.67;3.10;;;;;;;20.55;56.92;97511.03;4958875;28;20221;-30
2023/05/02 01:18:08;;;;;;;3.23;2.93;;;;;;;20.53;56.50;97503.34;4956149;28;20208;-29
2023/05/02 01:20:37;;;;;;;3.47;3.10;;;;;;;20.54;56.62;97512.72;4964526;28;20200;-30
2023/05/02 01:23:06;;;;;;;3.20;2.90;;;;;;;20.52;56.75;97510.94;4974088;28;20223;-30
2023/05/02 01:25:57;;;;;;;3.30;3.00;;;;;;;20.46;56.78;97497.97;4975512;28;20258;-28
2023/05/02 01:28:43;;;;;;;3.33;3.03;;;;;;;20.49;56.83;97505.72;4973471;28;20207;-29
2023/05/02 01:31:10;;;;;;;3.20;2.90;;;;;;;20.50;56.47;97513.44;4972202;28;20572;-29
2023/05/02 01:33:36;;;;;;;3.33;3.03;;;;;;;20.54;56.77;97525.47;4946605;29;20216;-29
2023/05/02 01:36:03;;;;;;;3.10;2.90;;;;;;;20.54;56.53;97522.94;4942273;28;20197;-30
2023/05/02 01:38:30;;;;;;;3.57;3.27;;;;;;;20.54;56.29;97520.38;4958165;28;20239;-29
2023/05/02 01:40:57;;;;;;;3.20;2.87;;;;;;;20.54;56.37;97527.19;4974291;28;20204;-29
2023/05/02 01:43:23;;;;;;;3.27;2.80;;;;;;;20.55;56.54;97532.34;4970494;28;20236;-29
2023/05/02 01:45:50;;;;;;;3.30;3.00;;;;;;;20.49;56.51;97518.50;4955078;28;20305;-29
2023/05/02 01:48:17;;;;;;;3.37;3.07;;;;;;;20.49;56.20;97519.34;4974152;28;20203;-28
2023/05/02 01:50:44;;;;;;;3.40;3.10;;;;;;;20.54;56.73;97529.75;4958146;28;20211;-29
2023/05/02 01:53:12;;;;;;;2.97;2.77;;;;;;;20.52;56.47;97516.03;4975059;28;20682;-28
2023/05/02 01:55:40;;;;;;;3.47;2.70;;;;;;;20.50;56.41;97518.56;4968756;28;20356;-28
2023/05/02 01:58:07;;;;;;;3.20;3.00;;;;;;;20.54;56.70;97532.28;4962910;28;20231;-28
2023/05/02 02:00:34;;;;;;;2.60;2.40;;;;;;;20.54;56.45;97533.13;4968218;28;20215;-29
2023/05/02 02:03:00;;;;;;;3.17;2.70;;;;;;;20.55;56.76;97526.38;4951940;28;20200;-29
2023/05/02 02:05:27;;;;;;;3.00;2.77;;;;;;;20.55;56.48;97534.03;4966836;28;20255;-28
2023/05/02 02:07:53;;;;;;;2.97;2.77;;;;;;;20.52;56.76;97527.09;4969516;28;20307;-29
2023/05/02 02:10:20;;;;;;;3.00;2.70;;;;;;;20.44;56.30;97520.91;4973218;28;20196;-29
2023/05/02 02:12:53;;;;;;;3.10;2.70;;;;;;;20.51;56.70;97532.16;4978983;28;20207;-29
2023/05/02 02:15:27;;;;;;;2.97;2.77;;;;;;;20.53;56.69;97541.63;4979219;28;20220;-30
2023/05/02 02:18:10;;;;;;;2.87;2.60;;;;;;;20.53;56.55;97539.06;4961682;28;20710;-28
2023/05/02 02:20:37;;;;;;;4.20;3.13;;;;;;;20.52;56.65;97544.97;4961335;28;20274;-29
2023/05/02 02:23:05;;;;;;;3.10;2.90;;;;;;;20.50;56.56;97533.00;4973355;28;20235;-28
2023/05/02 02:25:32;;;;;;;2.83;2.63;;;;;;;20.53;56.54;97543.31;4964444;28;20737;-28
2023/05/02 02:27:59;;;;;;;3.07;2.80;;;;;;;20.53;56.49;97546.72;4965050;28;20220;-30
2023/05/02 02:30:26;;;;;;;3.60;3.10;;;;;;;20.53;56.43;97541.63;4974308;28;20705;-28
2023/05/02 02:32:53;;;;;;;3.13;2.70;;;;;;;20.52;56.63;97547.53;4962292;28;20287;-29
2023/05/02 02:35:19;;;;;;;3.23;2.93;;;;;;;20.53;56.56;97544.19;4974409;28;20227;-29
2023/05/02 02:37:51;;;;;;;2.97;2.77;;;;;;;20.40;56.56;97530.94;4961955;28;20240;-29
2023/05/02 02:40:32;;;;;;;3.07;2.87;;;;;;;20.53;56.61;97549.28;4966733;28;20231;-29
2023/05/02 02:43:26;;;;;;;3.17;2.87;;;;;;;20.53;56.47;97551.84;4959395;28;20203;-29
2023/05/02 02:46:34;;;;;;;2.80;2.60;;;;;;;20.54;56.54;97550.16;4966069;28;20203;-30
2023/05/02 02:49:05;;;;;;;2.93;2.70;;;;;;;20.54;56.47;97547.63;4935642;28;20331;-29
2023/05/02 02:51:57;;;;;;;2.87;2.67;;;;;;;20.52;56.51;97549.25;4951183;28;20743;-29
2023/05/02 02:54:36;;;;;;;3.30;3.00;;;;;;;20.53;56.69;97556.06;4955224;28;20220;-29
2023/05/02 02:57:05;;;;;;;3.00;2.80;;;;;;;20.53;56.60;97571.38;4951915;28;20337;-29
2023/05/02 02:59:40;;;;;;;3.00;2.80;;;;;;;20.53;56.63;97562.06;4952375;29;20200;-29
2023/05/02 03:02:08;;;;;;;3.07;2.87;;;;;;;20.53;56.40;97562.06;4968763;28;20697;-30
2023/05/02 03:04:39;;;;;;;2.90;2.70;;;;;;;20.47;56.76;97561.84;4967834;28;20231;-28
2023/05/02 03:07:06;;;;;;;2.83;2.63;;;;;;;20.51;56.57;97566.22;4961246;28;20701;-30
2023/05/02 03:09:42;;;;;;;3.40;3.10;;;;;;;20.52;56.70;97570.50;4965198;28;20207;-29
2023/05/02 03:12:10;;;;;;;2.83;2.63;;;;;;;20.53;56.42;97577.38;4967130;28;20237;-28
2023/05/02 03:14:37;;;;;;;2.83;2.63;;;;;;;20.54;56.46;97576.53;4967800;28;20235;-30
2023/05/02 03:17:04;;;;;;;3.20;3.00;;;;;;;20.50;56.49;97567.06;4956279;28;20206;-29
2023/05/02 03:19:30;;;;;;;3.23;2.93;;;;;;;20.48;56.32;97566.13;4967280;28;20200;-28
2023/05/02 03:21:57;;;;;;;2.90;2.70;;;;;;;20.54;56.54;97575.69;4968195;28;20203;-29
2023/05/02 03:24:23;;;;;;;3.10;2.90;;;;;;;20.54;56.58;97588.47;4963184;28;20223;-29
2023/05/02 03:26:52;;;;;;;3.10;2.50;;;;;;;20.54;56.44;97586.75;4971230;28;20671;-28
2023/05/02 03:29:19;;;;;;;3.00;2.80;;;;;;;20.54;56.76;97593.56;4949445;28;20200;-29
2023/05/02 03:31:46;;;;;;;3.07;2.87;;;;;;;20.51;56.32;97585.78;4971252;28;20218;-30
2023/05/02 03:34:12;;;;;;;2.90;2.70;;;;;;;20.54;56.49;97589.31;4970595;28;20231;-28
2023/05/02 03:36:39;;;;;;;3.10;2.90;;;;;;;20.55;56.54;97590.19;4967795;28;20575;-28
2023/05/02 03:39:05;;;;;;;3.30;3.00;;;;;;;20.55;56.23;97592.75;4966458;28;20234;-28
2023/05/02 03:41:32;;;;;;;3.43;3.13;;;;;;;20.54;56.43;97598.69;4971262;28;20199;-29
2023/05/02 03:43:58;;;;;;;3.37;3.07;;;;;;;20.51;56.53;97576.44;4966990;28;20228;-29
2023/05/02 03:46:25;;;;;;;3.23;3.03;;;;;;;20.54;56.40;97607.19;4972470;28;20227;-29
2023/05/02 03:48:52;;;;;;;3.43;3.13;;;;;;;20.50;56.39;97586.59;4968023;28;20206;-28
2023/05/02 03:51:18;;;;;;;3.33;3.13;;;;;;;20.53;56.28;97595.25;4965173;28;20213;-30
2023/05/02 03:53:45;;;;;;;3.40;3.10;;;;;;;20.54;56.55;97596.97;4968228;28;20250;-29
2023/05/02 03:56:12;;;;;;;3.07;2.80;;;;;;;20.54;56.30;97601.22;4970105;28;20227;-28
2023/05/02 03:58:38;;;;;;;3.60;3.30;;;;;;;20.50;56.25;97602.78;4947510;28;20383;-29
2023/05/02 04:01:12;;;;;;;3.20;3.00;;;;;;;20.53;56.51;97608.00;4963856;28;20214;-29
2023/05/02 04:03:39;;;;;;;3.47;3.17;;;;;;;20.54;56.77;97609.72;4966524;28;20199;-30
2023/05/02 04:06:05;;;;;;;3.60;3.30;;;;;;;20.50;56.31;97600.25;4965549;28;20254;-30
2023/05/02 04:08:32;;;;;;;3.60;3.30;;;;;;;20.53;56.89;97613.13;4965891;28;20299;-28
2023/05/02 04:10:58;;;;;;;3.50;3.20;;;;;;;20.53;56.34;97617.34;4970914;28;20204;-29
2023/05/02 04:13:25;;;;;;;3.50;3.20;;;;;;;20.54;56.71;97624.22;4956778;28;20258;-28
2023/05/02 04:15:52;;;;;;;3.57;3.27;;;;;;;20.54;56.46;97619.94;4964857;28;20572;-30
2023/05/02 04:18:18;;;;;;;3.60;3.30;;;;;;;20.53;56.50;97617.34;4958565;28;20211;-33
2023/05/02 04:20:45;;;;;;;3.63;3.33;;;;;;;20.53;56.27;97620.78;4961557;28;20219;-28
2023/05/02 04:23:12;;;;;;;4.00;3.70;;;;;;;20.55;56.26;97629.38;4954925;28;20254;-29
2023/05/02 04:25:38;;;;;;;4.20;3.80;;;;;;;20.56;56.46;97626.00;4954309;28;20227;-30
2023/05/02 04:28:05;;;;;;;4.13;3.70;;;;;;;20.57;56.19;97634.53;4957736;28;20223;-30
2023/05/02 04:30:31;;;;;;;3.87;3.57;;;;;;;20.43;56.59;97613.59;4955671;28;20207;-28
2023/05/02 04:32:58;;;;;;;4.10;3.80;;;;;;;20.55;56.19;97634.47;4960070;28;20671;-32
2023/05/02 04:35:25;;;;;;;3.50;3.20;;;;;;;20.58;56.45;97642.25;4958979;28;20259;-31
2023/05/02 04:37:51;;;;;;;4.00;3.70;;;;;;;20.56;56.59;97630.22;4953139;28;20704;-29
2023/05/02 04:40:18;;;;;;;4.30;3.90;;;;;;;20.55;56.22;97639.59;4955539;28;20905;-30
2023/05/02 04:42:45;;;;;;;3.70;3.40;;;;;;;20.59;56.23;97646.53;4955504;28;20552;-30
2023/05/02 04:45:11;;;;;;;4.30;3.90;;;;;;;20.57;56.37;97640.47;4955005;28;20226;-30
2023/05/02 04:47:38;;;;;;;3.80;3.50;;;;;;;20.60;56.18;97650.81;4957761;28;20319;-28
2023/05/02 04:50:06;;;;;;;4.00;3.60;;;;;;;20.60;56.19;97666.13;4958152;28;20208;-29
2023/05/02 04:52:32;;;;;;;4.00;3.70;;;;;;;20.60;56.64;97657.63;4956943;28;20585;-29
2023/05/02 04:54:59;;;;;;;3.60;3.30;;;;;;;20.60;56.37;97665.28;4957507;28;20318;-29
2023/05/02 04:57:26;;;;;;;3.83;3.53;;;;;;;20.60;56.08;97662.72;4958489;28;20196;-31
2023/05/02 04:59:52;;;;;;;3.63;3.33;;;;;;;20.58;55.98;97665.22;4964658;28;20207;-29
2023/05/02 05:02:19;;;;;;;4.07;3.77;;;;;;;20.59;56.17;97664.41;4962395;28;20255;-28
2023/05/02 05:04:45;;;;;;;3.93;3.63;;;;;;;20.59;56.27;97669.50;4964589;28;20322;-28
2023/05/02 05:07:12;;;;;;;4.33;4.03;;;;;;;20.60;56.45;97663.56;4966048;28;20224;-29
2023/05/02 05:09:38;;;;;;;4.30;4.00;;;;;;;20.58;56.37;97662.66;4963452;28;20206;-28
2023/05/02 05:12:05;;;;;;;4.00;3.70;;;;;;;20.58;55.98;97667.78;4966820;28;20208;-28
2023/05/02 05:14:32;;;;;;;4.23;3.93;;;;;;;20.59;56.31;97669.50;4963932;28;20307;-29
2023/05/02 05:16:59;;;;;;;4.10;3.80;;;;;;;20.59;56.04;97681.38;4968002;28;20200;-30
2023/05/02 05:19:25;;;;;;;5.27;3.97;;;;;;;20.46;56.18;97662.19;4969513;28;20206;-30
2023/05/02 05:21:52;;;;;;;3.97;3.67;;;;;;;20.58;56.27;97687.31;4965775;28;20321;-28
2023/05/02 05:24:18;;;;;;;4.00;3.70;;;;;;;20.59;56.58;97692.47;4958220;28;20217;-30
2023/05/02 05:26:45;;;;;;;3.80;3.50;;;;;;;20.60;56.02;97693.38;4962995;28;20223;-29
2023/05/02 05:29:11;;;;;;;3.80;3.50;;;;;;;20.58;56.50;97703.53;4955100;28;20208;-28
2023/05/02 05:31:38;;;;;;;4.20;3.80;;;;;;;20.57;56.46;97706.03;4964001;28;20227;-29
2023/05/02 05:34:07;;;;;;;4.30;3.90;;;;;;;20.56;56.33;97700.03;4972807;28;20322;-30
2023/05/02 05:36:34;;;;;;;3.87;3.47;;;;;;;20.60;56.29;97708.69;4963828;28;20232;-28
2023/05/02 05:39:00;;;;;;;4.30;3.90;;;;;;;20.60;56.39;97714.63;4967892;28;20196;-29
2023/05/02 05:41:27;;;;;;;4.40;4.00;;;;;;;20.60;56.28;97708.69;4965859;28;20287;-28
2023/05/02 05:43:55;;;;;;;4.00;3.70;;;;;;;20.58;56.08;97710.31;4965616;28;20236;-29
2023/05/02 05:46:21;;;;;;;4.27;3.87;;;;;;;20.60;56.12;97713.78;4972104;28;20204;-29
2023/05/02 05:48:48;;;;;;;4.63;4.23;;;;;;;20.60;56.17;97719.75;4965923;28;20220;-30
2023/05/02 05:51:15;;;;;;;4.93;4.50;;;;;;;20.61;56.38;97712.97;4964400;28;20295;-29
2023/05/02 05:53:41;;;;;;;5.27;4.77;;;;;;;20.58;55.98;97707.75;4967418;28;20223;-28
2023/05/02 05:56:09;;;;;;;5.80;5.30;;;;;;;20.60;56.09;97711.25;4964462;28;20201;-28
2023/05/02 05:58:36;;;;;;;7.57;5.73;;;;;;;20.60;55.66;97716.34;4965802;28;20631;-28
2023/05/02 06:01:03;;;;;;;7.67;6.93;;;;;;;20.59;55.74;97712.91;4974258;28;20299;-29
2023/05/02 06:03:30;;;;;;;7.80;7.00;;;;;;;20.58;55.80;97715.41;4962588;28;20639;-29
2023/05/02 06:05:57;;;;;;;7.63;6.93;;;;;;;20.58;55.81;97716.28;4971666;28;20242;-29
2023/05/02 06:08:23;;;;;;;7.67;7.00;;;;;;;20.59;55.28;97719.69;4972418;28;20230;-28
2023/05/02 06:10:50;;;;;;;7.70;6.90;;;;;;;20.59;55.38;97719.69;4974807;28;20199;-29
2023/05/02 06:13:16;;;;;;;7.37;6.40;;;;;;;20.59;55.57;97723.13;4968784;28;20214;-28
2023/05/02 06:15:43;;;;;;;7.70;6.97;;;;;;;20.58;55.88;97729.06;4974805;28;20285;-30
2023/05/02 06:18:09;;;;;;;7.90;7.10;;;;;;;20.56;55.38;97720.47;4968494;28;20204;-29
2023/05/02 06:20:36;;;;;;;8.43;6.53;;;;;;;20.57;55.73;97734.94;4971956;28;20575;-28
2023/05/02 06:23:03;;;;;;;11.27;9.13;;;;;;;20.55;55.50;97731.50;4966479;28;20200;-29
2023/05/02 06:25:29;;;;;;;12.23;11.03;;;;;;;20.57;54.93;97734.94;4974025;28;20215;-30
2023/05/02 06:27:56;;;;;;;11.97;9.57;;;;;;;20.56;55.14;97735.78;4968437;28;20733;-28
2023/05/02 06:30:22;;;;;;;10.63;9.53;;;;;;;20.56;54.75;97735.78;4965306;28;20681;-30
2023/05/02 06:32:49;;;;;;;11.27;10.17;;;;;;;20.53;54.65;97730.56;4973769;28;20204;-29
2023/05/02 06:35:16;;;;;;;10.67;9.57;;;;;;;20.56;55.53;97734.91;4974096;28;20652;-29
2023/05/02 06:37:42;;;;;;;18.07;9.30;;;;;;;20.50;55.67;97727.91;4969218;28;20576;-29
2023/05/02 06:40:09;;;;;;;10.40;8.47;;;;;;;20.55;55.21;97733.16;4968251;28;20580;-29
2023/05/02 06:42:36;;;;;;;9.37;8.47;;;;;;;20.53;55.54;97743.31;4962398;28;20287;-28
2023/05/02 06:45:02;;;;;;;9.27;8.33;;;;;;;20.55;55.45;97751.03;4970973;28;20281;-30
2023/05/02 06:47:30;;;;;;;9.00;8.10;;;;;;;20.53;55.64;97747.56;4963424;28;20215;-28
2023/05/02 06:49:56;;;;;;;8.73;7.93;;;;;;;20.54;55.79;97757.81;4962289;28;20208;-29
2023/05/02 06:52:23;;;;;;;8.90;7.33;;;;;;;20.55;55.83;97757.03;4966970;28;20200;-29
2023/05/02 06:54:50;;;;;;;8.60;7.90;;;;;;;20.53;56.01;97755.22;4973758;28;20223;-29
2023/05/02 06:57:16;;;;;;;8.70;7.90;;;;;;;20.51;55.94;97769.59;4972765;28;20278;-28
2023/05/02 06:59:43;;;;;;;8.43;7.63;;;;;;;20.40;55.66;97758.97;4967694;28;20203;-29
2023/05/02 07:02:10;;;;;;;7.97;7.23;;;;;;;20.56;55.62;97785.97;4973697;28;20207;-29
2023/05/02 07:04:36;;;;;;;8.20;7.50;;;;;;;20.54;55.76;97780.81;4969417;28;20599;-29
2023/05/02 07:07:03;;;;;;;8.13;7.40;;;;;;;20.54;55.68;97779.94;4965153;28;20295;-32
2023/05/02 07:09:30;;;;;;;8.07;7.33;;;;;;;20.55;55.95;97790.22;4963597;28;20290;-29
2023/05/02 07:11:56;;;;;;;7.73;7.00;;;;;;;20.54;55.50;97791.00;4967999;28;20211;-29
2023/05/02 07:14:23;;;;;;;7.17;6.40;;;;;;;20.50;55.49;97786.63;4962702;28;20336;-29
2023/05/02 07:16:49;;;;;;;7.13;6.47;;;;;;;20.56;55.43;97791.94;4973014;28;20210;-29
2023/05/02 07:19:16;;;;;;;7.53;6.83;;;;;;;20.53;55.46;97789.28;4973545;28;20729;-30
2023/05/02 07:21:43;;;;;;;7.37;6.67;;;;;;;20.56;56.05;97785.97;4971732;28;20302;-30
2023/05/02 07:24:09;;;;;;;7.23;6.53;;;;;;;20.56;55.47;97798.72;4965565;28;20223;-30
2023/05/02 07:26:36;;;;;;;8.00;7.20;;;;;;;20.54;54.97;97788.47;4963432;28;20211;-28
2023/05/02 07:29:05;;;;;;;8.60;7.80;;;;;;;20.42;55.39;97772.69;4967099;28;20226;-29
2023/05/02 07:31:32;;;;;;;8.17;7.37;;;;;;;20.55;55.88;97805.53;4967000;28;20678;-30
2023/05/02 07:33:58;;;;;;;8.30;7.50;;;;;;;20.52;55.68;97795.19;4968065;28;20318;-30
2023/05/02 07:36:25;;;;;;;9.10;6.87;;;;;;;20.55;55.46;97804.66;4972235;28;20730;-30
2023/05/02 07:38:52;;;;;;;8.37;7.47;;;;;;;20.54;55.46;97811.44;4968971;28;20195;-29
2023/05/02 07:41:18;;;;;;;8.37;7.03;;;;;;;20.54;55.45;97813.16;4964991;28;20205;-28
2023/05/02 07:43:45;;;;;;;8.60;7.70;;;;;;;20.55;54.97;97814.88;4963948;28;20220;-30
2023/05/02 07:46:15;;;;;;;7.90;7.20;;;;;;;20.54;55.47;97813.16;4959779;28;20232;-30
2023/05/02 07:48:41;;;;;;;7.30;6.60;;;;;;;20.54;55.56;97811.44;4966863;28;20570;-29
2023/05/02 07:51:08;;;;;;;7.10;6.50;;;;;;;20.53;55.60;97813.94;4961168;28;20215;-28
2023/05/02 07:53:35;;;;;;;7.63;6.93;;;;;;;20.51;55.57;97806.22;4961665;28;20227;-29
2023/05/02 07:56:06;;;;;;;7.80;7.10;;;;;;;20.50;55.74;97812.16;4959911;28;20351;-30
2023/05/02 07:58:35;;;;;;;7.43;6.77;;;;;;;20.53;55.99;97814.81;4971841;28;20254;-28
2023/05/02 08:01:02;;;;;;;7.57;6.87;;;;;;;20.47;55.87;97804.38;4965200;28;20246;-28
2023/05/02 08:03:30;;;;;;;7.10;6.40;;;;;;;20.49;55.85;97815.50;4967429;28;20244;-29
2023/05/02 08:05:57;;;;;;;6.60;6.00;;;;;;;20.53;55.87;97821.59;4973191;28;20219;-29
2023/05/02 08:08:24;;;;;;;6.63;6.03;;;;;;;20.50;55.74;97819.81;4962250;28;20212;-28
2023/05/02 08:10:50;;;;;;;6.83;6.23;;;;;;;20.52;56.20;97819.88;4964931;28;20749;-29
2023/05/02 08:13:17;;;;;;;7.30;6.60;;;;;;;20.56;55.88;97831.94;4971904;28;20290;-28
2023/05/02 08:15:43;;;;;;;6.60;6.00;;;;;;;20.57;55.86;97833.69;4970842;28;20224;-28
2023/05/02 08:18:10;;;;;;;7.07;6.27;;;;;;;20.53;55.95;97825.03;4967895;28;20192;-28
2023/05/02 08:20:37;;;;;;;6.47;5.80;;;;;;;20.55;55.70;97828.53;4969078;28;20262;-28
2023/05/02 08:23:03;;;;;;;6.50;5.90;;;;;;;20.58;55.97;97825.19;4970197;28;20605;-29
2023/05/02 08:25:30;;;;;;;6.83;6.17;;;;;;;20.57;56.17;97829.44;4970742;28;20223;-29
2023/05/02 08:27:57;;;;;;;6.27;5.77;;;;;;;20.51;55.86;97825.75;4960118;28;20627;-30
2023/05/02 08:30:23;;;;;;;6.60;5.67;;;;;;;20.60;55.87;97838.91;4964508;28;20621;-29
2023/05/02 08:32:50;;;;;;;5.70;5.20;;;;;;;20.60;56.28;97838.91;4958958;28;20234;-28
2023/05/02 08:35:17;;;;;;;6.13;5.57;;;;;;;20.59;55.81;97840.59;4971942;28;20314;-29
2023/05/02 08:37:43;;;;;;;6.50;5.90;;;;;;;20.57;55.89;97828.59;4961754;28;20211;-29
2023/05/02 08:40:11;;;;;;;5.70;5.20;;;;;;;20.59;55.94;97835.47;4969413;28;20749;-30
2023/05/02 08:42:37;;;;;;;5.10;4.70;;;;;;;20.61;56.14;97841.53;4968050;28;20214;-29
2023/05/02 08:45:05;;;;;;;6.00;5.50;;;;;;;20.58;55.75;97838.84;4946500;29;20220;-28
2023/05/02 08:47:32;;;;;;;5.23;4.83;;;;;;;20.62;56.01;97848.38;4963139;28;20200;-28
2023/05/02 08:49:58;;;;;;;5.90;5.40;;;;;;;20.57;56.42;97838.78;4972268;28;20718;-29
2023/05/02 08:52:25;;;;;;;5.87;5.27;;;;;;;20.54;56.07;97831.88;4964939;28;20232;-29
2023/05/02 08:54:52;;;;;;;5.07;4.67;;;;;;;20.60;55.99;97847.41;4955170;28;20254;-30
2023/05/02 08:57:19;;;;;;;5.63;5.13;;;;;;;20.61;55.94;97854.28;4972286;28;20203;-29
2023/05/02 08:59:47;;;;;;;5.70;5.20;;;;;;;20.58;55.78;97846.50;4969495;28;20197;-29
2023/05/02 09:02:28;;;;;;;5.63;5.13;;;;;;;20.60;55.82;97855.09;4960024;28;20630;-28
2023/05/02 09:04:55;;;;;;;4.87;4.47;;;;;;;20.62;56.14;97863.69;4965947;28;20307;-30
2023/05/02 09:07:22;;;;;;;5.63;5.13;;;;;;;20.62;56.08;97861.13;4954871;28;20203;-29
2023/05/02 09:09:48;;;;;;;5.47;4.97;;;;;;;20.62;55.93;97860.25;4970175;28;20694;-29
2023/05/02 09:12:15;;;;;;;5.17;4.70;;;;;;;20.60;56.22;97870.41;4972377;28;20242;-30
2023/05/02 09:14:42;;;;;;;5.33;4.93;;;;;;;20.62;55.96;97873.91;4970222;28;20228;-29
2023/05/02 09:17:09;;;;;;;4.80;4.40;;;;;;;20.62;55.60;97867.91;4963556;28;20658;-30
2023/05/02 09:19:36;;;;;;;5.40;4.97;;;;;;;20.62;55.95;97870.47;4973002;28;20207;-29
2023/05/02 09:22:02;;;;;;;5.10;4.60;;;;;;;20.61;55.86;97882.38;4975859;28;20227;-30
2023/05/02 09:24:29;;;;;;;5.37;4.90;;;;;;;20.62;55.98;97873.91;4975679;28;20226;-28
2023/05/02 09:27:01;;;;;;;4.80;4.40;;;;;;;20.60;55.92;97874.66;4967205;28;20236;-29
2023/05/02 09:29:34;;;;;;;5.00;4.60;;;;;;;20.62;56.00;97884.13;4960020;28;20215;-29
2023/05/02 09:32:02;;;;;;;4.90;4.50;;;;;;;20.62;55.90;97879.00;4962348;28;20235;-29
2023/05/02 09:34:30;;;;;;;4.53;4.13;;;;;;;20.62;56.16;97873.00;4968608;28;20609;-28
2023/05/02 09:36:57;;;;;;;4.60;4.20;;;;;;;20.63;56.00;97880.72;4975275;28;20204;-31
2023/05/02 09:39:25;;;;;;;4.50;4.20;;;;;;;20.62;55.92;97884.13;4972320;28;20196;-29
2023/05/02 09:41:52;;;;;;;6.90;6.30;;;;;;;20.60;56.28;97878.06;4974807;28;20204;-28
2023/05/02 09:44:21;;;;;;;6.33;5.73;;;;;;;20.62;56.12;97886.66;4966302;28;20360;-29
2023/05/02 09:46:49;;;;;;;7.17;6.47;;;;;;;20.62;56.10;97891.78;4972985;28;20200;-29
2023/05/02 09:49:19;;;;;;;6.90;6.20;;;;;;;20.62;56.28;97880.69;4963729;28;20230;-29
2023/05/02 09:51:46;;;;;;;6.33;5.73;;;;;;;20.62;56.17;97888.34;4972884;28;20694;-29
2023/05/02 09:54:13;;;;;;;6.93;5.93;;;;;;;20.61;56.20;97897.69;4967328;28;20588;-31
2023/05/02 09:56:56;;;;;;;6.77;6.10;;;;;;;20.59;56.13;97880.56;4973931;28;20573;-30
2023/05/02 09:59:22;;;;;;;7.40;5.67;;;;;;;20.61;56.24;97886.59;4967470;28;20202;-29
2023/05/02 10:01:56;;;;;;;6.43;5.93;;;;;;;20.47;56.09;97859.66;4968740;28;20203;-29
2023/05/02 10:04:23;;;;;;;6.70;6.10;;;;;;;20.57;55.45;97883.06;4971681;28;20302;-29
2023/05/02 10:06:53;;;;;;;6.57;5.73;;;;;;;20.62;56.17;97903.66;4964177;28;20573;-29
2023/05/02 10:09:22;;;;;;;6.40;5.87;;;;;;;20.59;56.25;97890.78;4973206;28;20223;-29
2023/05/02 10:11:51;;;;;;;6.20;5.70;;;;;;;20.55;56.17;97876.16;4969206;28;20211;-29
2023/05/02 10:14:19;;;;;;;6.93;5.47;;;;;;;20.61;56.33;97897.69;4968459;28;20219;-36
2023/05/02 10:16:54;;;;;;;5.60;5.10;;;;;;;20.60;56.22;97895.94;4972107;28;20753;-29
2023/05/02 10:19:28;;;;;;;5.90;5.30;;;;;;;20.54;56.05;97882.94;4973893;28;20548;-29
2023/05/02 10:21:55;;;;;;;5.80;5.20;;;;;;;20.61;56.07;97892.59;4979269;28;20208;-30
2023/05/02 10:24:21;;;;;;;5.43;5.03;;;;;;;20.62;56.43;97884.13;4974616;28;20267;-29
2023/05/02 10:26:48;;;;;;;5.63;5.13;;;;;;;20.63;56.34;97901.16;4968915;28;20207;-28
2023/05/02 10:29:14;;;;;;;5.20;4.80;;;;;;;20.63;56.00;97896.06;4945718;28;20215;-28
2023/05/02 10:31:41;;;;;;;5.50;5.03;;;;;;;20.47;56.04;97863.09;4981421;28;20242;-28
2023/05/02 10:34:10;;;;;;;5.53;5.03;;;;;;;20.63;56.07;97890.09;4950590;29;20278;-28
2023/05/02 10:36:37;;;;;;;5.00;4.50;;;;;;;20.64;55.93;97890.16;4973338;28;20250;-28
2023/05/02 10:39:04;;;;;;;4.90;4.37;;;;;;;20.59;55.76;97876.34;4968490;28;20198;-30
2023/05/02 10:41:31;;;;;;;4.50;4.10;;;;;;;20.64;56.23;97884.16;4964039;28;20200;-28
2023/05/02 10:43:58;;;;;;;4.60;4.20;;;;;;;20.64;55.91;97887.59;4968061;28;20275;-30
2023/05/02 10:46:35;;;;;;;4.97;4.57;;;;;;;20.64;56.06;97886.72;4963675;28;20240;-28
2023/05/02 10:49:05;;;;;;;4.67;4.27;;;;;;;20.63;56.04;97878.19;4969054;28;20238;-31
2023/05/02 10:51:32;;;;;;;4.60;4.20;;;;;;;20.64;56.04;97889.28;4973273;28;20200;-29
2023/05/02 10:54:18;;;;;;;4.90;4.50;;;;;;;20.64;56.15;97879.06;4963318;28;20251;-28
2023/05/02 10:57:04;;;;;;;4.73;4.33;;;;;;;20.62;55.99;97879.00;4968481;28;20255;-28
2023/05/02 10:59:38;;;;;;;4.47;4.07;;;;;;;20.65;56.01;97875.69;4966830;28;20228;-29
2023/05/02 11:02:45;;;;;;;4.70;4.30;;;;;;;20.65;55.92;97875.69;4972020;28;20663;-29
2023/05/02 11:05:11;;;;;;;4.23;3.83;;;;;;;20.63;55.50;97878.19;4961619;28;20583;-29
2023/05/02 11:07:38;;;;;;;4.73;4.33;;;;;;;20.51;56.05;97853.84;4973442;28;20649;-29
2023/05/02 11:10:14;;;;;;;4.23;3.50;;;;;;;20.64;55.85;97871.41;4973979;28;20219;-28
2023/05/02 11:12:47;;;;;;;4.97;4.50;;;;;;;20.59;55.95;97863.56;4964934;28;20204;-28
2023/05/02 11:15:37;;;;;;;4.40;4.00;;;;;;;20.62;55.82;97866.25;4972314;28;20216;-32
2023/05/02 11:18:13;;;;;;;4.63;4.23;;;;;;;20.63;55.99;97862.84;4958626;28;20211;-29
2023/05/02 11:20:41;;;;;;;4.03;3.70;;;;;;;20.64;55.90;97863.75;4965411;28;20211;-29
2023/05/02 11:23:25;;;;;;;4.30;4.00;;;;;;;20.63;55.77;97855.19;4968404;28;20209;-29
2023/05/02 11:25:55;;;;;;;4.27;3.80;;;;;;;20.62;55.85;97852.59;4965377;28;20203;-29
2023/05/02 11:28:37;;;;;;;4.13;3.83;;;;;;;20.64;55.89;97853.53;4967047;28;20283;-29
2023/05/02 11:31:05;;;;;;;3.97;3.67;;;;;;;20.59;55.94;97840.59;4968184;28;20228;-30
2023/05/02 11:33:31;;;;;;;3.87;3.57;;;;;;;20.60;56.10;97841.47;4971713;28;20686;-29
2023/05/02 11:35:58;;;;;;;3.90;3.60;;;;;;;20.63;56.06;97850.09;4960868;28;20202;-29
2023/05/02 11:38:25;;;;;;;3.67;3.37;;;;;;;20.63;55.93;97844.97;4971589;28;20200;-29
2023/05/02 11:40:54;;;;;;;4.10;3.80;;;;;;;20.59;55.90;97843.13;4965788;28;20196;-29